createdAt,value
2022-08-02T00:02:28.722Z,13.48
2022-08-02T00:07:31.731Z,13.45
2022-08-02T00:12:34.881Z,13.36
2022-08-02T00:17:39.117Z,13.35
2022-08-02T00:22:41.983Z,13.32
2022-08-02T00:27:44.827Z,13.29
2022-08-02T00:32:49.196Z,13.31
2022-08-02T00:37:52.233Z,13.26
2022-08-02T00:43:06.765Z,13.29
2022-08-02T00:48:12.312Z,13.23
2022-08-02T00:53:15.127Z,13.16
2022-08-02T00:58:18.095Z,13.17
2022-08-02T01:03:22.239Z,13.04
2022-08-02T01:08:29.576Z,13.09
2022-08-02T01:13:34.768Z,13.09
2022-08-02T01:18:45.195Z,12.98
2022-08-02T01:24:01.075Z,12.94
2022-08-02T01:29:09.771Z,12.94
2022-08-02T01:34:17.851Z,12.95
2022-08-02T01:39:27.331Z,12.90
2022-08-02T01:44:41.048Z,12.85
2022-08-02T01:49:47.541Z,12.77
2022-08-02T01:54:53.622Z,12.72
2022-08-02T02:00:01.694Z,12.64
2022-08-02T02:05:07.454Z,12.55
2022-08-02T02:10:15.012Z,12.48
2022-08-02T02:15:19.789Z,12.41
2022-08-02T02:20:24.519Z,12.32
2022-08-02T02:25:36.143Z,12.20
2022-08-02T02:30:50.656Z,12.08
2022-08-02T02:35:54.334Z,12.04
2022-08-02T02:40:59.578Z,12.04
2022-08-02T02:46:06.229Z,12.04
2022-08-02T02:51:14.101Z,11.99
2022-08-02T02:56:17.722Z,11.98
2022-08-02T03:01:55.523Z,12.03
2022-08-02T03:06:51.390Z,12.00
2022-08-02T03:11:56.107Z,12.04
2022-08-02T03:17:00.218Z,12.07
2022-08-02T03:22:03.040Z,12.05
2022-08-02T03:27:05.884Z,12.16
2022-08-02T03:32:10.793Z,12.17
2022-08-02T03:37:13.970Z,12.38
2022-08-02T03:42:17.341Z,12.49
2022-08-02T03:47:22.880Z,12.60
2022-08-02T03:52:27.590Z,12.76
2022-08-02T03:57:31.148Z,12.77
2022-08-02T04:02:36.240Z,12.71
2022-08-02T04:08:32.823Z,12.82
2022-08-02T04:13:01.914Z,12.76
2022-08-02T04:18:06.466Z,12.75
2022-08-02T04:23:12.918Z,12.65
2022-08-02T04:28:18.351Z,12.66
2022-08-02T04:33:23.481Z,12.58
2022-08-02T04:38:26.840Z,12.40
2022-08-02T04:43:29.644Z,12.39
2022-08-02T04:48:34.040Z,12.39
2022-08-02T04:53:36.847Z,12.42
2022-08-02T04:58:40.844Z,12.48
2022-08-02T05:03:46.795Z,12.67
2022-08-02T05:08:52.952Z,12.93
2022-08-02T05:13:58.052Z,13.19
2022-08-02T05:19:03.972Z,13.37
2022-08-02T05:24:07.895Z,13.68
2022-08-02T05:29:10.794Z,14.00
2022-08-02T05:34:14.934Z,14.49
2022-08-02T05:39:19.086Z,14.80
2022-08-02T05:44:22.598Z,14.75
2022-08-02T05:49:26.966Z,14.98
2022-08-02T05:54:42.409Z,15.23
2022-08-02T05:59:54.710Z,15.22
2022-08-02T06:05:05.210Z,15.80
2022-08-02T06:10:09.972Z,16.93
2022-08-02T06:15:15.188Z,16.92
2022-08-02T06:20:21.246Z,16.83
2022-08-02T06:25:50.371Z,16.87
2022-08-02T06:30:48.770Z,16.79
2022-08-02T06:36:03.177Z,17.74
2022-08-02T06:41:08.165Z,19.02
2022-08-02T06:46:57.058Z,22.14
2022-08-02T06:51:36.370Z,24.94
2022-08-02T06:56:39.254Z,27.70
2022-08-02T07:01:42.470Z,29.14
2022-08-02T07:06:46.749Z,31.08
2022-08-02T07:11:49.677Z,32.22
2022-08-02T07:16:53.491Z,31.26
2022-08-02T07:22:00.588Z,29.96
2022-08-02T07:27:13.538Z,31.79
2022-08-02T07:32:17.773Z,32.81
2022-08-02T07:37:53.472Z,33.94
2022-08-02T07:42:47.058Z,34.19
2022-08-02T07:47:50.800Z,36.48
2022-08-02T07:52:58.074Z,35.32
2022-08-02T07:58:01.145Z,32.81
2022-08-02T08:03:03.964Z,32.60
2022-08-02T08:08:11.138Z,34.46
2022-08-02T08:13:17.167Z,32.88
2022-08-02T08:18:20.010Z,33.71
2022-08-02T08:23:24.555Z,30.37
2022-08-02T08:28:31.330Z,29.69
2022-08-02T08:34:22.734Z,25.53
2022-08-02T08:39:27.036Z,23.51
2022-08-02T08:44:30.590Z,21.67
2022-08-02T08:49:38.284Z,21.83
2022-08-02T08:54:59.262Z,22.07
2022-08-02T09:00:02.678Z,22.01
2022-08-02T09:05:06.501Z,22.00
2022-08-02T09:10:38.627Z,22.29
2022-08-02T09:15:42.886Z,22.17
2022-08-02T09:20:57.480Z,22.31
2022-08-02T09:26:07.403Z,22.54
2022-08-02T09:31:13.165Z,22.35
2022-08-02T09:36:17.506Z,22.75
2022-08-02T09:41:25.158Z,22.77
2022-08-02T09:46:30.541Z,23.08
2022-08-02T09:51:35.821Z,22.54
2022-08-02T09:56:45.122Z,22.60
2022-08-02T10:01:59.062Z,22.66
2022-08-02T10:07:06.189Z,23.04
2022-08-02T10:12:12.617Z,23.27
2022-08-02T10:17:16.683Z,23.00
2022-08-02T10:22:20.206Z,23.31
2022-08-02T10:27:25.929Z,23.54
2022-08-02T10:32:34.560Z,23.42
2022-08-02T10:37:40.298Z,23.24
2022-08-02T10:42:49.621Z,23.55
2022-08-02T10:48:04.537Z,23.49
2022-08-02T10:53:27.877Z,23.73
2022-08-02T10:58:34.130Z,23.74
2022-08-02T11:03:40.771Z,23.95
2022-08-02T11:08:43.887Z,24.07
2022-08-02T11:14:07.107Z,24.45
2022-08-02T11:19:09.915Z,24.62
2022-08-02T11:24:28.161Z,24.51
2022-08-02T11:29:40.439Z,24.66
2022-08-02T11:34:44.026Z,24.81
2022-08-02T11:39:51.745Z,24.86
2022-08-02T11:44:57.387Z,25.07
2022-08-02T11:50:07.794Z,25.59
2022-08-02T11:55:12.586Z,25.95
2022-08-02T12:00:19.316Z,25.74
2022-08-02T12:06:02.910Z,26.02
2022-08-02T12:10:49.604Z,25.91
2022-08-02T12:15:54.000Z,25.88
2022-08-02T12:20:56.839Z,25.91
2022-08-02T12:26:05.577Z,25.53
2022-08-02T12:31:14.029Z,25.52
2022-08-02T12:36:17.765Z,26.41
2022-08-02T12:41:31.500Z,26.83
2022-08-02T12:46:42.166Z,26.53
2022-08-02T12:51:55.857Z,26.12
2022-08-02T12:57:12.611Z,26.38
2022-08-02T13:02:18.001Z,26.11
2022-08-02T13:07:21.171Z,26.70
2022-08-02T13:12:24.377Z,27.24
2022-08-02T13:17:28.753Z,27.12
2022-08-02T13:22:31.763Z,26.91
2022-08-02T13:27:36.319Z,26.99
2022-08-02T13:32:40.631Z,26.96
2022-08-02T13:37:44.598Z,27.51
2022-08-02T13:42:47.430Z,27.85
2022-08-02T13:48:04.665Z,27.63
2022-08-02T13:53:08.595Z,27.85
2022-08-02T13:58:12.020Z,27.48
2022-08-02T14:03:16.930Z,27.75
2022-08-02T14:08:22.770Z,27.35
2022-08-02T14:13:25.768Z,27.94
2022-08-02T14:18:29.943Z,27.68
2022-08-02T14:23:50.574Z,27.15
2022-08-02T14:28:53.954Z,27.38
2022-08-02T14:33:58.219Z,27.29
2022-08-02T14:39:01.906Z,27.42
2022-08-02T14:44:05.666Z,27.43
2022-08-02T14:49:11.241Z,28.18
2022-08-02T14:54:18.215Z,27.72
2022-08-02T14:59:21.307Z,27.38
2022-08-02T15:04:25.792Z,27.65
2022-08-02T15:09:28.900Z,27.95
2022-08-02T15:14:31.780Z,28.21
2022-08-02T15:19:57.506Z,28.19
2022-08-02T15:24:59.161Z,27.94
2022-08-02T15:30:01.951Z,27.27
2022-08-02T15:35:07.065Z,27.41
2022-08-02T15:40:11.209Z,27.26
2022-08-02T15:45:15.428Z,26.93
2022-08-02T15:50:20.950Z,27.15
2022-08-02T15:55:23.773Z,27.09
2022-08-02T16:00:27.391Z,27.23
2022-08-02T16:05:31.574Z,27.38
2022-08-02T16:10:35.137Z,27.56
2022-08-02T16:15:37.983Z,27.19
2022-08-02T16:20:42.304Z,27.00
2022-08-02T16:25:45.106Z,26.94
2022-08-02T16:31:04.814Z,27.02
2022-08-02T16:36:14.198Z,27.15
2022-08-02T16:41:17.093Z,26.94
2022-08-02T16:46:19.917Z,26.81
2022-08-02T16:51:26.814Z,26.72
2022-08-02T16:56:34.114Z,26.45
2022-08-02T17:02:03.355Z,26.30
2022-08-02T17:07:01.365Z,26.22
2022-08-02T17:12:04.467Z,26.13
2022-08-02T17:17:07.824Z,26.14
2022-08-02T17:22:19.702Z,26.25
2022-08-02T17:27:22.562Z,26.61
2022-08-02T17:32:25.375Z,26.79
2022-08-02T17:37:34.560Z,26.53
2022-08-02T17:42:44.451Z,26.41
2022-08-02T17:48:05.048Z,26.38
2022-08-02T17:53:12.957Z,26.28
2022-08-02T17:58:15.733Z,26.17
2022-08-02T18:03:18.657Z,26.19
2022-08-02T18:08:27.806Z,26.13
2022-08-02T18:13:35.779Z,25.99
2022-08-02T18:18:47.509Z,25.77
2022-08-02T18:23:58.784Z,25.64
2022-08-02T18:29:10.770Z,25.47
2022-08-02T18:34:15.120Z,25.41
2022-08-02T18:39:19.312Z,25.29
2022-08-02T18:44:22.195Z,25.35
2022-08-02T18:49:25.517Z,25.24
2022-08-02T18:54:42.305Z,25.23
2022-08-02T18:59:51.339Z,25.15
2022-08-02T19:04:54.478Z,25.07
2022-08-02T19:09:59.047Z,24.97
2022-08-02T19:15:02.257Z,24.90
2022-08-02T19:20:06.444Z,24.73
2022-08-02T19:25:15.936Z,24.68
2022-08-02T19:30:21.350Z,24.65
2022-08-02T19:35:34.439Z,24.61
2022-08-02T19:40:41.694Z,24.50
2022-08-02T19:51:09.427Z,24.51
2022-08-02T19:56:20.126Z,24.46
2022-08-02T20:01:36.829Z,24.31
2022-08-02T20:06:45.465Z,24.20
2022-08-02T20:11:54.245Z,24.23
2022-08-02T20:16:58.061Z,24.16
2022-08-02T20:22:00.973Z,24.07
2022-08-02T20:27:05.587Z,23.97
2022-08-02T20:32:08.618Z,23.91
2022-08-02T20:37:59.455Z,23.91
2022-08-02T20:42:36.010Z,23.90
2022-08-02T20:47:40.467Z,23.85
2022-08-02T20:52:43.866Z,23.80
2022-08-02T20:58:00.309Z,23.74
2022-08-02T21:03:05.696Z,23.61
2022-08-02T21:08:14.168Z,23.50
2022-08-02T21:13:23.237Z,23.46
2022-08-02T21:18:40.232Z,23.38
2022-08-02T21:23:48.479Z,23.30
2022-08-02T21:29:00.713Z,23.26
2022-08-02T21:34:21.605Z,23.21
2022-08-02T21:39:26.195Z,23.14
2022-08-02T21:44:30.473Z,23.06
2022-08-02T21:50:09.812Z,23.00
2022-08-02T21:54:56.888Z,22.98
2022-08-02T22:00:02.593Z,22.99
2022-08-02T22:05:14.135Z,22.94
2022-08-02T22:10:17.284Z,22.89
2022-08-02T22:15:25.751Z,22.84
2022-08-02T22:20:38.720Z,22.80
2022-08-02T22:25:44.114Z,22.78
2022-08-02T22:30:52.678Z,22.73
2022-08-02T22:35:55.988Z,22.70
2022-08-02T22:40:58.796Z,22.65
2022-08-02T22:46:02.986Z,22.61
2022-08-02T22:51:05.872Z,22.61
2022-08-02T22:56:09.693Z,22.61
2022-08-02T22:59:06.518Z,24.49
2022-08-02T23:01:14.457Z,22.72
2022-08-02T23:06:19.230Z,22.62
2022-08-02T23:11:25.696Z,22.55
2022-08-02T23:16:47.286Z,22.47
2022-08-02T23:22:02.062Z,22.40
2022-08-02T23:27:05.957Z,22.25
2022-08-02T23:32:10.442Z,22.07
2022-08-02T23:37:13.325Z,21.98
2022-08-02T23:42:16.433Z,21.91
2022-08-02T23:47:21.854Z,21.96
2022-08-02T23:52:25.481Z,21.88
2022-08-02T23:57:28.325Z,21.78
